Olivia Sylvie — FMIF — position and weather

sailwx.info

Track history (hours):
 
Tides and Currents Weather Stations Pressure Air Temp Water Temp Dewpoint Dewpoint Depression Visibility Wind Speed Wind Dir Waves Ship Positions

Olivia Sylvie

Last reported at 2014-Oct-21 15:33 UTC. Time now 2014-Oct-23 03:59 UTC.
Position N 43°24' E 004°60'.

Length 23 m.

Type: Fishing. MMSI: 228236800.

Date/timePositionNaut miles runAvg speedWind from/ knotsBaromVisibWave heightAir tempDewpointWater temp
2014-Oct-21 15:33N 43°24' E 004°60'0 0.0
2014-Oct-21 14:33N 43°24' E 004°60'0 0.0
2014-Oct-21 13:33N 43°24' E 004°60'2 2.5
2014-Oct-21 12:33N 43°22' E 004°58'5 3.7
2014-Oct-21 11:11N 43°19' E 004°53'2 3.4
2014-Oct-21 10:31N 43°18' E 004°56'4 4.0
2014-Oct-21 09:33N 43°18' E 005°01'2 2.3
2014-Oct-21 08:33N 43°16' E 005°01'3 2.5
2014-Oct-21 07:33N 43°15' E 004°58'4 4.1
2014-Oct-21 06:30N 43°15' E 004°52'5 1.4
2014-Oct-21 03:05N 43°17' E 004°57'5 9.5
2014-Oct-21 02:33N 43°22' E 004°58'2 0.3
2014-Oct-20 17:34N 43°24' E 004°60'0 0.0
2014-Oct-20 16:33N 43°24' E 004°60'0 0.0
2014-Oct-20 15:33N 43°24' E 004°60'0 0.0
2014-Oct-20 14:33N 43°24' E 004°60'3 3.3
2014-Oct-20 13:34N 43°21' E 004°60'3 2.9
2014-Oct-20 12:33N 43°18' E 004°59'1 1.4
2014-Oct-20 11:33N 43°19' E 004°57'4 4.0
2014-Oct-20 10:34N 43°18' E 005°03'3 3.3
2014-Oct-20 09:33N 43°16' E 004°59'4 3.5
2014-Oct-20 08:33N 43°13' E 004°56'1 1.5
2014-Oct-20 07:33N 43°12' E 004°55'4 4.1
2014-Oct-20 06:33N 43°12' E 004°49'3 2.8
2014-Oct-20 05:31N 43°10' E 004°52'3 3.4
2014-Oct-20 04:32N 43°12' E 004°56'4 4.0
2014-Oct-20 03:27N 43°16' E 004°57'7 8.3
2014-Oct-20 02:34N 43°23' E 004°59'1 0.1
2014-Oct-19 09:25N 43°24' E 004°60'0 0.0
2014-Oct-19 08:33N 43°24' E 004°60'0 0.0
2014-Oct-18 10:25N 43°24' E 004°60'0 0.0
2014-Oct-18 09:33N 43°24' E 004°60'0 0.0
2014-Oct-18 08:33N 43°24' E 004°60'0 0.0
2014-Oct-18 07:33N 43°24' E 004°60'0 0.0
2014-Oct-18 06:33N 43°24' E 004°60'0 0.0
2014-Oct-18 05:33N 43°24' E 004°60'0 0.0
2014-Oct-18 04:33N 43°24' E 004°60'0 0.0
2014-Oct-18 03:33N 43°24' E 004°60'0 0.0
2014-Oct-18 02:33N 43°24' E 004°60'0 0.0
2014-Oct-18 01:33N 43°24' E 004°60'0 0.0
2014-Oct-18 00:33N 43°24' E 004°60'0 0.0
2014-Oct-17 23:33N 43°24' E 004°60'0 0.0
2014-Oct-17 22:33N 43°24' E 004°60'0 0.0
2014-Oct-17 21:33N 43°24' E 004°60'0 0.0
2014-Oct-17 20:33N 43°24' E 004°60'0 0.0
2014-Oct-17 19:33N 43°24' E 004°60'0 0.0
2014-Oct-17 18:33N 43°24' E 004°60'0 0.0
2014-Oct-17 17:33N 43°24' E 004°60'0 0.0
2014-Oct-17 16:33N 43°24' E 004°60'0 0.0
2014-Oct-17 15:33N 43°24' E 004°60'0 0.0
2014-Oct-17 14:33N 43°24' E 004°60'0 0.0
2014-Oct-17 13:33N 43°24' E 004°60'4 3.9
2014-Oct-17 12:33N 43°21' E 004°57'3 2.5
2014-Oct-17 11:33N 43°18' E 004°56'4 4.0
2014-Oct-17 10:33N 43°18' E 005°02'3 2.6
2014-Oct-17 09:33N 43°16' E 005°00'4 3.9
2014-Oct-17 08:33N 43°14' E 004°55'2 2.3
2014-Oct-17 07:33N 43°12' E 004°54'4 3.7
2014-Oct-17 06:33N 43°11' E 004°49'4 3.5
2014-Oct-17 05:33N 43°10' E 004°53'4 3.6
2014-Oct-17 04:26N 43°13' E 004°56'4 4.0
2014-Oct-17 03:32N 43°17' E 004°57'8 7.7
2014-Oct-17 02:33N 43°24' E 004°60'0 0.0
2014-Oct-16 15:28N 43°24' E 004°60'0 0.0
2014-Oct-16 14:33N 43°24' E 004°60'0 0.0
2014-Oct-16 13:33N 43°24' E 004°60'5 5.5
2014-Oct-16 12:33N 43°20' E 004°55'2 1.8
2014-Oct-16 11:33N 43°18' E 004°57'4 3.7
2014-Oct-16 10:34N 43°18' E 005°02'2 2.4
2014-Oct-16 09:33N 43°16' E 005°01'4 3.9
2014-Oct-16 08:34N 43°14' E 004°56'2 2.4
2014-Oct-16 07:32N 43°12' E 004°54'4 3.5
2014-Oct-16 06:18N 43°10' E 004°49'8 2.9
2014-Oct-16 03:27N 43°16' E 004°57'6 7.1
2014-Oct-16 02:33N 43°23' E 004°59'2 0.2
2014-Oct-15 15:34N 43°24' E 004°60'0 0.0
2014-Oct-15 14:34N 43°24' E 004°60'6 6.3
2014-Oct-15 13:34N 43°18' E 005°02'2 2.4
2014-Oct-15 12:34N 43°16' E 005°01'4 3.7
2014-Oct-15 11:33N 43°16' E 004°56'4 3.7
2014-Oct-15 10:34N 43°19' E 004°60'3 3.4
2014-Oct-15 09:33N 43°17' E 005°03'4 4.0
2014-Oct-15 08:34N 43°16' E 004°58'3 2.8
2014-Oct-15 07:33N 43°16' E 004°54'4 3.6
2014-Oct-15 06:34N 43°15' E 004°49'4 3.9
2014-Oct-15 05:33N 43°15' E 004°44'4 3.8
2014-Oct-15 04:33N 43°17' E 004°48'4 4.1
2014-Oct-15 03:34N 43°18' E 004°53'5 4.6
2014-Oct-15 02:33N 43°21' E 004°58'4 0.4
2014-Oct-14 15:28N 43°24' E 004°60'0 0.0
2014-Oct-14 14:33N 43°24' E 004°60'0 0.0
2014-Oct-14 13:33N 43°24' E 004°60'0 0.4
2014-Oct-14 12:33N 43°24' E 004°59'5 4.8
2014-Oct-14 11:33N 43°20' E 004°55'2 2.0
2014-Oct-14 10:33N 43°18' E 004°56'4 4.0
2014-Oct-14 09:33N 43°18' E 005°02'2 2.2
2014-Oct-14 08:33N 43°16' E 005°01'4 4.1
2014-Oct-14 07:33N 43°16' E 004°56'3 3.2
2014-Oct-14 06:33N 43°18' E 004°52'8 7.6
2014-Oct-14 05:33N 43°24' E 004°59'  
Track history (hours):
 
Tides and Currents Weather Stations Pressure Air Temp Water Temp Dewpoint Dewpoint Depression Visibility Wind Speed Wind Dir Waves Ship Positions

Olivia Sylvie

Last reported at 2014-Oct-21 15:33 UTC. Time now 2014-Oct-23 03:59 UTC.
Position N 43°24' E 004°60'.

Length 23 m.

Type: Fishing. MMSI: 228236800.

Date/timePositionNaut miles runAvg speedWind from/ knotsBaromVisibWave heightAir tempDewpointWater temp
2014-Oct-21 15:33N 43°24' E 004°60'0 0.0
2014-Oct-21 14:33N 43°24' E 004°60'0 0.0
2014-Oct-21 13:33N 43°24' E 004°60'2 2.5
2014-Oct-21 12:33N 43°22' E 004°58'5 3.7
2014-Oct-21 11:11N 43°19' E 004°53'2 3.4
2014-Oct-21 10:31N 43°18' E 004°56'4 4.0
2014-Oct-21 09:33N 43°18' E 005°01'2 2.3
2014-Oct-21 08:33N 43°16' E 005°01'3 2.5
2014-Oct-21 07:33N 43°15' E 004°58'4 4.1
2014-Oct-21 06:30N 43°15' E 004°52'5 1.4
2014-Oct-21 03:05N 43°17' E 004°57'5 9.5
2014-Oct-21 02:33N 43°22' E 004°58'2 0.3
2014-Oct-20 17:34N 43°24' E 004°60'0 0.0
2014-Oct-20 16:33N 43°24' E 004°60'0 0.0
2014-Oct-20 15:33N 43°24' E 004°60'0 0.0
2014-Oct-20 14:33N 43°24' E 004°60'3 3.3
2014-Oct-20 13:34N 43°21' E 004°60'3 2.9
2014-Oct-20 12:33N 43°18' E 004°59'1 1.4
2014-Oct-20 11:33N 43°19' E 004°57'4 4.0
2014-Oct-20 10:34N 43°18' E 005°03'3 3.3
2014-Oct-20 09:33N 43°16' E 004°59'4 3.5
2014-Oct-20 08:33N 43°13' E 004°56'1 1.5
2014-Oct-20 07:33N 43°12' E 004°55'4 4.1
2014-Oct-20 06:33N 43°12' E 004°49'3 2.8
2014-Oct-20 05:31N 43°10' E 004°52'3 3.4
2014-Oct-20 04:32N 43°12' E 004°56'4 4.0
2014-Oct-20 03:27N 43°16' E 004°57'7 8.3
2014-Oct-20 02:34N 43°23' E 004°59'1 0.1
2014-Oct-19 09:25N 43°24' E 004°60'0 0.0
2014-Oct-19 08:33N 43°24' E 004°60'0 0.0
2014-Oct-18 10:25N 43°24' E 004°60'0 0.0
2014-Oct-18 09:33N 43°24' E 004°60'0 0.0
2014-Oct-18 08:33N 43°24' E 004°60'0 0.0
2014-Oct-18 07:33N 43°24' E 004°60'0 0.0
2014-Oct-18 06:33N 43°24' E 004°60'0 0.0
2014-Oct-18 05:33N 43°24' E 004°60'0 0.0
2014-Oct-18 04:33N 43°24' E 004°60'0 0.0
2014-Oct-18 03:33N 43°24' E 004°60'0 0.0
2014-Oct-18 02:33N 43°24' E 004°60'0 0.0
2014-Oct-18 01:33N 43°24' E 004°60'0 0.0
2014-Oct-18 00:33N 43°24' E 004°60'0 0.0
2014-Oct-17 23:33N 43°24' E 004°60'0 0.0
2014-Oct-17 22:33N 43°24' E 004°60'0 0.0
2014-Oct-17 21:33N 43°24' E 004°60'0 0.0
2014-Oct-17 20:33N 43°24' E 004°60'0 0.0
2014-Oct-17 19:33N 43°24' E 004°60'0 0.0
2014-Oct-17 18:33N 43°24' E 004°60'0 0.0
2014-Oct-17 17:33N 43°24' E 004°60'0 0.0
2014-Oct-17 16:33N 43°24' E 004°60'0 0.0
2014-Oct-17 15:33N 43°24' E 004°60'0 0.0
2014-Oct-17 14:33N 43°24' E 004°60'0 0.0
2014-Oct-17 13:33N 43°24' E 004°60'4 3.9
2014-Oct-17 12:33N 43°21' E 004°57'3 2.5
2014-Oct-17 11:33N 43°18' E 004°56'4 4.0
2014-Oct-17 10:33N 43°18' E 005°02'3 2.6
2014-Oct-17 09:33N 43°16' E 005°00'4 3.9
2014-Oct-17 08:33N 43°14' E 004°55'2 2.3
2014-Oct-17 07:33N 43°12' E 004°54'4 3.7
2014-Oct-17 06:33N 43°11' E 004°49'4 3.5
2014-Oct-17 05:33N 43°10' E 004°53'4 3.6
2014-Oct-17 04:26N 43°13' E 004°56'4 4.0
2014-Oct-17 03:32N 43°17' E 004°57'8 7.7
2014-Oct-17 02:33N 43°24' E 004°60'0 0.0
2014-Oct-16 15:28N 43°24' E 004°60'0 0.0
2014-Oct-16 14:33N 43°24' E 004°60'0 0.0
2014-Oct-16 13:33N 43°24' E 004°60'5 5.5
2014-Oct-16 12:33N 43°20' E 004°55'2 1.8
2014-Oct-16 11:33N 43°18' E 004°57'4 3.7
2014-Oct-16 10:34N 43°18' E 005°02'2 2.4
2014-Oct-16 09:33N 43°16' E 005°01'4 3.9
2014-Oct-16 08:34N 43°14' E 004°56'2 2.4
2014-Oct-16 07:32N 43°12' E 004°54'4 3.5
2014-Oct-16 06:18N 43°10' E 004°49'8 2.9
2014-Oct-16 03:27N 43°16' E 004°57'6 7.1
2014-Oct-16 02:33N 43°23' E 004°59'2 0.2
2014-Oct-15 15:34N 43°24' E 004°60'0 0.0
2014-Oct-15 14:34N 43°24' E 004°60'6 6.3
2014-Oct-15 13:34N 43°18' E 005°02'2 2.4
2014-Oct-15 12:34N 43°16' E 005°01'4 3.7
2014-Oct-15 11:33N 43°16' E 004°56'4 3.7
2014-Oct-15 10:34N 43°19' E 004°60'3 3.4
2014-Oct-15 09:33N 43°17' E 005°03'4 4.0
2014-Oct-15 08:34N 43°16' E 004°58'3 2.8
2014-Oct-15 07:33N 43°16' E 004°54'4 3.6
2014-Oct-15 06:34N 43°15' E 004°49'4 3.9
2014-Oct-15 05:33N 43°15' E 004°44'4 3.8
2014-Oct-15 04:33N 43°17' E 004°48'4 4.1
2014-Oct-15 03:34N 43°18' E 004°53'5 4.6
2014-Oct-15 02:33N 43°21' E 004°58'4 0.4
2014-Oct-14 15:28N 43°24' E 004°60'0 0.0
2014-Oct-14 14:33N 43°24' E 004°60'0 0.0
2014-Oct-14 13:33N 43°24' E 004°60'0 0.4
2014-Oct-14 12:33N 43°24' E 004°59'5 4.8
2014-Oct-14 11:33N 43°20' E 004°55'2 2.0
2014-Oct-14 10:33N 43°18' E 004°56'4 4.0
2014-Oct-14 09:33N 43°18' E 005°02'2 2.2
2014-Oct-14 08:33N 43°16' E 005°01'4 4.1
2014-Oct-14 07:33N 43°16' E 004°56'3 3.2
2014-Oct-14 06:33N 43°18' E 004°52'8 7.6
2014-Oct-14 05:33N 43°24' E 004°59'  

Dump ship's entire track history